Terminal Aerodrome Forecast
Issued by NWS Denver/Boulder, CO

Home | Current Version | Previous Version | Text Only | Print | Product List | Glossary On
Versions: 1 2 3 4 5 6 7 8 9 10 11 12 13 14 15 16 17 18 19 20 21 22 23 24 25 26 27 28 29 30 31 32 33 34 35 36 37 38 39 40 41 42 43 44 45 46 47 48 49 50
000
FTUS45 KBOU 161609 AAC
TAFDEN
TAF AMD
KDEN 161609Z 1616/1718 33014KT 1SM -SN BR SCT005 OVC010
     FM161800 33012KT 3SM -SN BR SCT008 OVC020
     FM162000 33012KT 6SM -SN BR SCT010 OVC030
     FM162100 32010KT P6SM VCSH SCT018 OVC030
     FM162200 31010KT P6SM FEW035 SCT070 BKN120
     FM170100 24006KT P6SM FEW050 SCT220
     FM170400 19008KT P6SM FEW220=

USA.gov is the U.S. government's official web portal to all federal, state and local government web resources and services.